Olympic Champion — SYWD — position and weather

sailwx.info

Track history (hours):
 
Tides and Currents Weather Stations Pressure Air Temp Water Temp Dewpoint Dewpoint Depression Visibility Wind Speed Wind Dir Waves Ship Positions

Olympic Champion

Last reported at 2015-May-24 08:33 UTC. Time now 2015-May-24 19:23 UTC.
Position N 39°21' E 020°13'.

Length 204 m; draft 6.5 m.

Type: Passenger vessel. MMSI: 237280000.

Date/timePositionNaut miles runAvg speedWind from/ knotsBaromVisibWave heightAir tempDewpointWater temp
2015-May-24 08:33N 39°21' E 020°13'8 8.3
2015-May-24 07:33N 39°30' E 020°15'3 2.9
2015-May-24 06:33N 39°30' E 020°12'2423.6
2015-May-24 05:34N 39°49' E 019°54'2727.3
2015-May-24 04:34N 40°04' E 019°24'9 0.3
2015-May-22 22:33N 40°05' E 019°35'2726.6
2015-May-22 21:33N 39°45' E 019°58'2020.0
2015-May-22 20:34N 39°30' E 020°15'0 0.2
2015-May-22 19:33N 39°30' E 020°15'7 0.6
2015-May-22 06:34N 39°23' E 020°12'7 7.3
2015-May-22 05:33N 39°30' E 020°15'10 9.6
2015-May-22 04:33N 39°34' E 020°04'2222.0
2015-May-22 03:34N 39°52' E 019°49'2221.6
2015-May-22 02:34N 40°04' E 019°25'2423.7
2015-May-22 01:34N 40°16' E 018°58'2424.1
2015-May-22 00:34N 40°29' E 018°32'49 1.0
2015-May-19 23:33N 40°08' E 019°30'2424.1
2015-May-19 22:34N 39°51' E 019°52'2323.1
2015-May-19 21:33N 39°31' E 020°07'7 6.7
2015-May-19 20:34N 39°30' E 020°15'7 6.6
2015-May-19 19:34N 39°24' E 020°11'4 0.1
2015-May-18 12:34N 39°20' E 020°13'10 9.9
2015-May-18 11:34N 39°30' E 020°15'4 3.9
2015-May-18 10:31N 39°30' E 020°10'1718.4
2015-May-18 09:34N 39°45' E 019°58'2019.9
2015-May-18 08:33N 39°60' E 019°41'2020.0
2015-May-18 07:33N 40°14' E 019°22'6 0.1
2015-May-16 07:34N 40°16' E 019°14'2121.1
2015-May-16 06:34N 40°02' E 019°35'2121.3
2015-May-16 05:33N 39°48' E 019°56'2120.6
2015-May-16 04:34N 39°30' E 020°09'5 5.2
2015-May-16 03:33N 39°30' E 020°15'0 0.0
2015-May-16 02:33N 39°30' E 020°15'1010.4
2015-May-16 01:34N 39°19' E 020°14'3324.6
2015-May-16 00:12N 38°48' E 020°27'  
Track history (hours):
 
Tides and Currents Weather Stations Pressure Air Temp Water Temp Dewpoint Dewpoint Depression Visibility Wind Speed Wind Dir Waves Ship Positions

Olympic Champion

Last reported at 2015-May-24 08:33 UTC. Time now 2015-May-24 19:23 UTC.
Position N 39°21' E 020°13'.

Length 204 m; draft 6.5 m.

Type: Passenger vessel. MMSI: 237280000.

Date/timePositionNaut miles runAvg speedWind from/ knotsBaromVisibWave heightAir tempDewpointWater temp
2015-May-24 08:33N 39°21' E 020°13'8 8.3
2015-May-24 07:33N 39°30' E 020°15'3 2.9
2015-May-24 06:33N 39°30' E 020°12'2423.6
2015-May-24 05:34N 39°49' E 019°54'2727.3
2015-May-24 04:34N 40°04' E 019°24'9 0.3
2015-May-22 22:33N 40°05' E 019°35'2726.6
2015-May-22 21:33N 39°45' E 019°58'2020.0
2015-May-22 20:34N 39°30' E 020°15'0 0.2
2015-May-22 19:33N 39°30' E 020°15'7 0.6
2015-May-22 06:34N 39°23' E 020°12'7 7.3
2015-May-22 05:33N 39°30' E 020°15'10 9.6
2015-May-22 04:33N 39°34' E 020°04'2222.0
2015-May-22 03:34N 39°52' E 019°49'2221.6
2015-May-22 02:34N 40°04' E 019°25'2423.7
2015-May-22 01:34N 40°16' E 018°58'2424.1
2015-May-22 00:34N 40°29' E 018°32'49 1.0
2015-May-19 23:33N 40°08' E 019°30'2424.1
2015-May-19 22:34N 39°51' E 019°52'2323.1
2015-May-19 21:33N 39°31' E 020°07'7 6.7
2015-May-19 20:34N 39°30' E 020°15'7 6.6
2015-May-19 19:34N 39°24' E 020°11'4 0.1
2015-May-18 12:34N 39°20' E 020°13'10 9.9
2015-May-18 11:34N 39°30' E 020°15'4 3.9
2015-May-18 10:31N 39°30' E 020°10'1718.4
2015-May-18 09:34N 39°45' E 019°58'2019.9
2015-May-18 08:33N 39°60' E 019°41'2020.0
2015-May-18 07:33N 40°14' E 019°22'6 0.1
2015-May-16 07:34N 40°16' E 019°14'2121.1
2015-May-16 06:34N 40°02' E 019°35'2121.3
2015-May-16 05:33N 39°48' E 019°56'2120.6
2015-May-16 04:34N 39°30' E 020°09'5 5.2
2015-May-16 03:33N 39°30' E 020°15'0 0.0
2015-May-16 02:33N 39°30' E 020°15'1010.4
2015-May-16 01:34N 39°19' E 020°14'3324.6
2015-May-16 00:12N 38°48' E 020°27'  

Dump ship's entire track history